Time;durP1;ratioP1;P1;durP2;ratioP2;P2;SDS_P1;SDS_P2;PMS_P1;PMS_P2;Temp;Humidity;BMP_temperature;BMP_pressure;BME280_temperature;BME280_humidity;BME280_pressure;Samples;Min_cycle;Max_cycle;Signal;HPM_P1;HPM_P2
2022/08/28 00:00:47;;;;;;;18.25;5.28;;;16.30;99.90;;;;;;5015208;28;20208;-74
2022/08/28 00:03:16;;;;;;;10.07;5.10;;;16.20;99.90;;;;;;5010632;28;20241;-75
2022/08/28 00:05:43;;;;;;;16.42;5.45;;;16.20;99.90;;;;;;5010455;28;20237;-74
2022/08/28 00:08:13;;;;;;;16.30;6.82;;;16.10;99.90;;;;;;5014771;28;20285;-73
2022/08/28 00:10:40;;;;;;;19.00;5.88;;;16.10;99.90;;;;;;5015786;28;20250;-75
2022/08/28 00:13:09;;;;;;;12.65;4.75;;;16.10;99.90;;;;;;5010301;28;20232;-75
2022/08/28 00:15:37;;;;;;;11.30;5.80;;;16.00;99.90;;;;;;5011396;28;20568;-74
2022/08/28 00:18:05;;;;;;;16.48;5.40;;;16.00;99.90;;;;;;5010592;28;20213;-75
2022/08/28 00:20:35;;;;;;;11.13;5.13;;;15.90;99.90;;;;;;5016914;28;20205;-74
2022/08/28 00:23:05;;;;;;;15.13;5.32;;;15.90;99.90;;;;;;5011378;28;20283;-75
2022/08/28 00:25:36;;;;;;;11.40;5.55;;;16.00;99.90;;;;;;5016376;28;20213;-74
2022/08/28 00:28:05;;;;;;;13.18;4.97;;;15.90;99.90;;;;;;5020076;28;20267;-75
2022/08/28 00:30:35;;;;;;;14.85;4.78;;;15.90;99.90;;;;;;5014682;28;20235;-74
2022/08/28 00:33:05;;;;;;;13.18;4.82;;;15.90;99.90;;;;;;5014092;28;20240;-74
2022/08/28 00:35:41;;;;;;;13.05;5.13;;;15.90;99.90;;;;;;5016268;28;20796;-77
2022/08/28 00:38:08;;;;;;;16.60;5.10;;;15.80;99.90;;;;;;5015112;28;20303;-73
2022/08/28 00:40:35;;;;;;;9.95;5.85;;;15.80;99.90;;;;;;5015693;28;20209;-76
2022/08/28 00:43:05;;;;;;;17.85;5.40;;;15.80;99.90;;;;;;5016037;28;20272;-74
2022/08/28 00:45:34;;;;;;;19.45;7.72;;;15.80;99.90;;;;;;5014792;28;20683;-76
2022/08/28 00:48:03;;;;;;;19.65;6.95;;;15.80;99.90;;;;;;5016229;28;20681;-74
2022/08/28 00:52:04;;;;;;;27.65;7.43;;;15.80;99.90;;;;;;5014354;28;20211;-76
2022/08/28 00:53:23;;;;;;;16.27;5.50;;;15.80;99.90;;;;;;5014170;28;20225;-75
2022/08/28 00:55:50;;;;;;;19.42;7.55;;;15.80;99.90;;;;;;5015682;28;20613;-73
2022/08/28 00:58:18;;;;;;;13.23;4.43;;;15.80;99.90;;;;;;5015489;28;20602;-75
2022/08/28 01:00:46;;;;;;;11.77;5.93;;;15.80;99.90;;;;;;5009566;28;20200;-75
2022/08/28 01:03:13;;;;;;;12.48;5.43;;;15.80;99.90;;;;;;5004845;28;20916;-76
2022/08/28 01:05:46;;;;;;;13.20;5.70;;;15.80;99.90;;;;;;5011534;28;20202;-76
2022/08/28 01:08:13;;;;;;;10.93;7.30;;;15.80;99.90;;;;;;5010388;28;20563;-76
2022/08/28 01:10:44;;;;;;;15.13;5.38;;;15.80;99.90;;;;;;5011430;28;20222;-74
2022/08/28 01:13:15;;;;;;;11.57;5.28;;;15.80;99.90;;;;;;5009243;28;20247;-76
2022/08/28 01:15:42;;;;;;;16.45;5.32;;;15.80;99.90;;;;;;5017971;28;20220;-74
2022/08/28 01:18:14;;;;;;;14.75;5.90;;;15.80;99.90;;;;;;5021078;28;20216;-75
2022/08/28 01:20:47;;;;;;;12.43;6.20;;;15.80;99.90;;;;;;5008455;28;20197;-77
2022/08/28 01:23:24;;;;;;;14.80;7.87;;;15.80;99.90;;;;;;5013496;28;20231;-75
2022/08/28 01:25:52;;;;;;;15.18;5.05;;;15.80;99.90;;;;;;5014991;28;20454;-74
2022/08/28 01:28:19;;;;;;;12.80;4.60;;;15.90;99.90;;;;;;5020834;28;20602;-74
2022/08/28 01:30:48;;;;;;;18.70;4.90;;;15.90;99.90;;;;;;5012753;28;20203;-75
2022/08/28 01:33:16;;;;;;;13.77;5.13;;;15.90;99.90;;;;;;5011194;28;20231;-75
2022/08/28 01:35:46;;;;;;;12.93;4.88;;;16.00;99.90;;;;;;5015636;28;20244;-74
2022/08/28 01:38:13;;;;;;;22.73;5.60;;;15.90;99.90;;;;;;5015824;28;20630;-74
2022/08/28 01:40:46;;;;;;;16.30;5.50;;;15.90;99.90;;;;;;5015585;28;20234;-73
2022/08/28 01:43:18;;;;;;;15.93;4.90;;;16.00;99.90;;;;;;5020270;28;20225;-75
2022/08/28 01:45:55;;;;;;;8.18;4.90;;;15.80;99.90;;;;;;5031245;28;20216;-75
2022/08/28 01:48:25;;;;;;;9.65;4.05;;;15.80;99.90;;;;;;5024933;28;20280;-75
2022/08/28 01:50:55;;;;;;;11.27;4.43;;;15.70;99.90;;;;;;5003220;28;20292;-75
2022/08/28 01:53:24;;;;;;;14.18;4.40;;;15.60;99.90;;;;;;5015264;28;20232;-75
2022/08/28 01:55:54;;;;;;;11.85;4.85;;;15.60;99.90;;;;;;5018840;28;20251;-73
2022/08/28 01:58:26;;;;;;;18.35;5.07;;;15.60;99.90;;;;;;5016157;28;20233;-76
2022/08/28 02:00:54;;;;;;;8.32;3.90;;;15.60;99.90;;;;;;5020822;28;20230;-74
2022/08/28 02:03:22;;;;;;;11.23;6.28;;;15.60;99.90;;;;;;5034632;28;20239;-76
2022/08/28 02:05:50;;;;;;;10.27;4.68;;;15.60;99.90;;;;;;5024950;28;20241;-75
2022/08/28 02:08:17;;;;;;;18.70;6.05;;;15.50;99.90;;;;;;5026228;28;20228;-75
2022/08/28 02:10:45;;;;;;;26.27;5.15;;;15.40;99.90;;;;;;5023349;28;20204;-75
2022/08/28 02:13:13;;;;;;;14.20;4.65;;;15.40;99.90;;;;;;5014287;28;20221;-75
2022/08/28 02:15:42;;;;;;;8.18;4.28;;;15.40;99.90;;;;;;5014083;28;20252;-77
2022/08/28 02:18:10;;;;;;;13.35;4.90;;;15.40;99.90;;;;;;5014127;28;20217;-75
2022/08/28 02:20:38;;;;;;;12.77;4.63;;;15.50;99.90;;;;;;5013459;28;20740;-75
2022/08/28 02:23:05;;;;;;;8.50;4.18;;;15.50;99.90;;;;;;5013185;28;20312;-75
2022/08/28 02:25:38;;;;;;;15.77;4.63;;;15.60;99.90;;;;;;5012720;28;20243;-75
2022/08/28 02:28:05;;;;;;;13.13;4.10;;;15.60;99.90;;;;;;5021248;28;20670;-75
2022/08/28 02:30:32;;;;;;;15.38;4.90;;;15.70;99.90;;;;;;5019478;28;20253;-75
2022/08/28 02:33:01;;;;;;;20.08;4.72;;;15.70;99.90;;;;;;5014471;28;20194;-75
2022/08/28 02:35:30;;;;;;;14.40;4.22;;;15.70;99.90;;;;;;5008366;28;20237;-75
2022/08/28 02:37:57;;;;;;;9.77;4.68;;;15.80;99.90;;;;;;5013769;28;20201;-75
2022/08/28 02:40:26;;;;;;;7.47;3.50;;;15.70;99.90;;;;;;5001218;28;20751;-74
2022/08/28 02:42:53;;;;;;;9.95;3.53;;;15.70;99.90;;;;;;5012687;28;20719;-74
2022/08/28 02:45:20;;;;;;;10.10;3.13;;;15.80;99.90;;;;;;5012205;28;20652;-74
2022/08/28 02:47:48;;;;;;;16.20;3.75;;;15.80;99.90;;;;;;5013323;28;20734;-75
2022/08/28 02:50:19;;;;;;;9.15;3.83;;;15.80;99.90;;;;;;5013477;28;20235;-76
2022/08/28 02:52:46;;;;;;;8.85;3.95;;;15.80;99.90;;;;;;5016077;28;20201;-77
2022/08/28 02:55:16;;;;;;;8.77;3.38;;;15.80;99.90;;;;;;5017117;28;20233;-75
2022/08/28 02:57:43;;;;;;;13.70;4.85;;;15.80;99.90;;;;;;5015499;28;20296;-73
2022/08/28 03:00:14;;;;;;;10.32;3.40;;;15.80;99.90;;;;;;5005391;28;20264;-73
2022/08/28 03:02:44;;;;;;;9.80;4.40;;;15.80;99.90;;;;;;5025916;28;20242;-73
2022/08/28 03:05:12;;;;;;;6.78;2.83;;;15.70;99.90;;;;;;5014400;28;20570;-75
2022/08/28 03:07:41;;;;;;;9.35;3.85;;;15.60;99.90;;;;;;5012979;28;20297;-76
2022/08/28 03:10:09;;;;;;;7.22;4.35;;;15.60;99.90;;;;;;5013510;28;20624;-75
2022/08/28 03:12:37;;;;;;;7.88;3.35;;;15.60;99.90;;;;;;5015881;28;20673;-75
2022/08/28 03:15:06;;;;;;;11.40;4.95;;;15.60;99.90;;;;;;5016801;28;20693;-76
2022/08/28 03:17:35;;;;;;;12.85;5.22;;;15.60;99.90;;;;;;5013997;28;20208;-75
2022/08/28 03:20:03;;;;;;;9.63;3.90;;;15.60;99.90;;;;;;5010639;28;20222;-74
2022/08/28 03:25:16;;;;;;;13.13;3.17;;;15.60;99.90;;;;;;5015867;28;20223;-75
2022/08/28 03:27:43;;;;;;;5.53;3.53;;;15.60;99.90;;;;;;5002890;28;20201;-75
2022/08/28 03:30:10;;;;;;;11.02;3.33;;;15.60;99.90;;;;;;5015590;28;20655;-76
2022/08/28 03:32:39;;;;;;;16.73;4.55;;;15.60;99.90;;;;;;5012437;28;20233;-76
2022/08/28 03:35:07;;;;;;;13.40;4.10;;;15.60;99.90;;;;;;5022678;28;20280;-75
2022/08/28 03:37:40;;;;;;;13.50;4.90;;;15.60;99.90;;;;;;5025189;28;20233;-74
2022/08/28 03:40:08;;;;;;;6.85;3.05;;;15.40;99.90;;;;;;5021566;28;20211;-75
2022/08/28 03:42:38;;;;;;;11.88;4.22;;;15.40;99.90;;;;;;5021132;28;20268;-75
2022/08/28 03:45:07;;;;;;;9.98;4.00;;;15.30;99.90;;;;;;5019080;28;20585;-76
2022/08/28 03:47:35;;;;;;;19.85;5.70;;;15.30;99.90;;;;;;5031906;28;20204;-75
2022/08/28 03:50:03;;;;;;;9.48;3.97;;;15.30;99.90;;;;;;5027795;28;20208;-74
2022/08/28 03:52:31;;;;;;;9.00;3.70;;;15.20;99.90;;;;;;5018235;28;20196;-76
2022/08/28 03:54:58;;;;;;;12.50;3.03;;;15.10;99.90;;;;;;5020608;28;20217;-74
2022/08/28 03:57:25;;;;;;;12.27;4.00;;;15.00;99.90;;;;;;5016477;28;20289;-75
2022/08/28 03:59:53;;;;;;;11.07;3.38;;;14.90;99.90;;;;;;5015777;28;20746;-75
2022/08/28 04:02:21;;;;;;;7.53;3.63;;;14.80;99.90;;;;;;5021051;28;20739;-74
2022/08/28 04:04:49;;;;;;;7.43;4.25;;;14.80;99.90;;;;;;5016405;28;20661;-74
2022/08/28 04:07:17;;;;;;;11.13;3.30;;;14.70;99.90;;;;;;5020034;28;20716;-75
2022/08/28 04:09:44;;;;;;;6.55;3.30;;;14.80;99.90;;;;;;5015392;28;20236;-75
2022/08/28 04:12:11;;;;;;;8.82;3.45;;;14.70;99.90;;;;;;5015513;28;20675;-76
2022/08/28 04:14:38;;;;;;;8.20;3.58;;;14.60;99.90;;;;;;5014094;28;20216;-76
2022/08/28 04:17:07;;;;;;;12.23;3.83;;;14.70;99.90;;;;;;5015528;28;20569;-74
2022/08/28 04:19:34;;;;;;;8.18;4.75;;;14.70;99.90;;;;;;5014027;28;20316;-74
2022/08/28 04:22:01;;;;;;;13.07;4.28;;;14.70;99.90;;;;;;5014878;28;20197;-75
2022/08/28 04:24:28;;;;;;;14.55;3.72;;;14.60;99.90;;;;;;5015270;28;20229;-73
2022/08/28 04:26:56;;;;;;;8.25;3.83;;;14.60;99.90;;;;;;5014438;28;20207;-76
2022/08/28 04:29:23;;;;;;;12.07;3.63;;;14.60;99.90;;;;;;5014967;28;20290;-77
2022/08/28 04:31:50;;;;;;;7.68;3.83;;;14.60;99.90;;;;;;5013627;28;20206;-77
2022/08/28 04:34:19;;;;;;;9.10;3.38;;;14.60;99.90;;;;;;5019419;28;20562;-75
2022/08/28 04:36:46;;;;;;;8.15;3.20;;;14.60;99.90;;;;;;5018185;28;20233;-75
2022/08/28 04:39:13;;;;;;;8.45;3.40;;;14.60;99.90;;;;;;5016651;28;20307;-77
2022/08/28 04:41:40;;;;;;;6.88;3.30;;;14.60;99.90;;;;;;5015050;28;20232;-77
2022/08/28 04:44:08;;;;;;;8.02;3.80;;;14.60;99.90;;;;;;5015146;28;20263;-76
2022/08/28 04:46:35;;;;;;;7.57;3.13;;;14.60;99.90;;;;;;5014711;28;20211;-75
2022/08/28 04:49:04;;;;;;;9.02;3.95;;;14.60;99.90;;;;;;5015313;28;20201;-75
2022/08/28 04:51:33;;;;;;;24.33;4.63;;;14.70;99.90;;;;;;5015048;28;20296;-75
2022/08/28 04:54:02;;;;;;;20.15;4.82;;;14.70;99.90;;;;;;5014342;28;20221;-73
2022/08/28 04:56:29;;;;;;;12.50;4.00;;;14.70;99.90;;;;;;5014812;28;20208;-73
2022/08/28 04:58:55;;;;;;;16.63;4.53;;;14.70;99.90;;;;;;5015232;28;20197;-76
2022/08/28 05:01:24;;;;;;;10.13;3.97;;;14.80;99.90;;;;;;5019317;28;20247;-74
2022/08/28 05:03:56;;;;;;;11.20;4.05;;;14.80;99.90;;;;;;5015627;28;20264;-74
2022/08/28 05:06:25;;;;;;;7.97;3.35;;;14.90;99.90;;;;;;5013765;28;20267;-74
2022/08/28 05:08:54;;;;;;;15.57;3.85;;;15.00;99.90;;;;;;5015226;28;20586;-74
2022/08/28 05:11:25;;;;;;;13.88;3.88;;;14.90;99.90;;;;;;5014742;28;20207;-75
2022/08/28 05:13:53;;;;;;;11.95;4.20;;;15.20;99.90;;;;;;5006429;28;20220;-74
2022/08/28 05:16:22;;;;;;;13.63;3.90;;;15.20;99.90;;;;;;5014675;28;20283;-75
2022/08/28 05:18:50;;;;;;;10.57;2.88;;;15.40;99.90;;;;;;5013083;28;20276;-74
2022/08/28 05:21:20;;;;;;;7.68;3.10;;;15.50;99.90;;;;;;5014390;28;20304;-74
2022/08/28 05:23:48;;;;;;;8.70;3.20;;;15.50;99.90;;;;;;5014396;28;20311;-75
2022/08/28 05:26:18;;;;;;;9.77;4.28;;;15.50;99.90;;;;;;5016142;28;20263;-75
2022/08/28 05:28:45;;;;;;;12.73;3.70;;;15.50;99.90;;;;;;5014629;28;20201;-74
2022/08/28 05:31:14;;;;;;;7.75;3.78;;;15.50;99.90;;;;;;5014229;28;20684;-75
2022/08/28 05:33:41;;;;;;;14.90;3.47;;;15.50;99.90;;;;;;5014103;28;20217;-76
2022/08/28 05:36:09;;;;;;;10.57;3.00;;;15.70;99.90;;;;;;5015058;28;20212;-73
2022/08/28 05:38:37;;;;;;;12.23;3.05;;;16.40;99.90;;;;;;5015205;28;20204;-74
2022/08/28 05:41:04;;;;;;;12.50;3.92;;;17.30;99.90;;;;;;5014683;28;20315;-74
2022/08/28 05:43:33;;;;;;;8.13;2.97;;;18.00;99.90;;;;;;5014922;28;20229;-78
2022/08/28 05:46:03;;;;;;;8.60;3.20;;;18.60;99.90;;;;;;5016584;28;20448;-75
2022/08/28 05:48:33;;;;;;;6.83;3.70;;;19.20;99.90;;;;;;5033433;28;20509;-76
2022/08/28 05:51:06;;;;;;;8.63;3.70;;;19.90;99.90;;;;;;5018168;28;20430;-76
2022/08/28 05:53:34;;;;;;;7.13;3.63;;;20.70;99.90;;;;;;5016383;28;20458;-76
2022/08/28 05:56:03;;;;;;;7.53;2.60;;;21.40;99.90;;;;;;5018893;28;20527;-74
2022/08/28 05:58:33;;;;;;;6.13;3.13;;;21.90;99.40;;;;;;5015122;28;20877;-75
2022/08/28 06:01:13;;;;;;;10.00;2.80;;;22.60;97.70;;;;;;5014047;28;20468;-78
2022/08/28 06:03:42;;;;;;;12.43;2.93;;;23.50;96.30;;;;;;5015852;28;20489;-74
2022/08/28 06:06:11;;;;;;;5.60;2.60;;;24.00;93.70;;;;;;5006253;28;20981;-75
2022/08/28 06:08:39;;;;;;;7.67;3.00;;;24.70;92.30;;;;;;5013994;28;20459;-74
2022/08/28 06:11:06;;;;;;;10.00;2.70;;;25.40;90.90;;;;;;5011249;28;20889;-73
2022/08/28 06:13:36;;;;;;;11.83;3.00;;;26.00;89.40;;;;;;5009823;28;20796;-73
2022/08/28 06:16:04;;;;;;;9.27;2.60;;;26.40;86.70;;;;;;5021347;28;20456;-73
2022/08/28 06:18:32;;;;;;;10.97;3.30;;;26.60;85.10;;;;;;5025434;28;20448;-73
2022/08/28 06:21:02;;;;;;;5.60;2.80;;;26.60;84.30;;;;;;5018263;28;20990;-75
2022/08/28 06:23:29;;;;;;;8.70;2.40;;;27.00;83.00;;;;;;5006643;28;20483;-74
2022/08/28 06:25:57;;;;;;;6.60;3.43;;;27.10;82.40;;;;;;4997294;28;20444;-72
2022/08/28 06:28:27;;;;;;;8.37;3.37;;;27.50;82.20;;;;;;5017405;28;20443;-74
2022/08/28 06:30:56;;;;;;;8.63;3.37;;;27.90;79.90;;;;;;5013280;28;20462;-73
2022/08/28 06:33:24;;;;;;;10.50;2.73;;;28.20;78.40;;;;;;5013989;28;20962;-73
2022/08/28 06:35:53;;;;;;;5.37;2.50;;;28.40;77.70;;;;;;5009513;28;20456;-73
2022/08/28 06:38:22;;;;;;;8.73;3.57;;;28.20;77.00;;;;;;5014375;28;20799;-73
2022/08/28 06:40:53;;;;;;;9.80;2.93;;;28.20;77.30;;;;;;5011918;28;20511;-73
2022/08/28 06:43:22;;;;;;;8.33;3.30;;;28.60;76.20;;;;;;5010557;28;20543;-73
2022/08/28 06:45:52;;;;;;;8.47;3.77;;;28.80;75.20;;;;;;5004563;28;20441;-73
2022/08/28 06:48:22;;;;;;;10.03;3.13;;;28.80;74.50;;;;;;5017103;28;20454;-73
2022/08/28 06:50:52;;;;;;;10.37;3.80;;;28.70;74.70;;;;;;5016115;28;20531;-72
2022/08/28 06:53:21;;;;;;;7.03;2.97;;;29.10;74.30;;;;;;5016012;28;20467;-73
2022/08/28 06:55:58;;;;;;;7.93;3.50;;;28.70;73.80;;;;;;5018051;28;20447;-72
2022/08/28 06:58:26;;;;;;;6.93;3.27;;;27.90;75.40;;;;;;5013553;28;20454;-72
2022/08/28 07:01:05;;;;;;;6.83;2.80;;;27.00;77.40;;;;;;5012508;28;20562;-73
2022/08/28 07:03:34;;;;;;;6.80;3.00;;;26.30;79.70;;;;;;5012660;28;20476;-72
2022/08/28 07:06:03;;;;;;;9.00;3.03;;;26.10;81.50;;;;;;5013281;28;20944;-72
2022/08/28 07:08:31;;;;;;;11.17;3.33;;;26.50;81.20;;;;;;5013164;28;20448;-71
2022/08/28 07:10:59;;;;;;;15.47;3.43;;;27.30;79.70;;;;;;5012211;28;20479;-73
2022/08/28 07:13:27;;;;;;;5.87;2.33;;;27.70;78.30;;;;;;5017067;28;20542;-73
2022/08/28 07:15:53;;;;;;;9.17;2.63;;;28.20;77.40;;;;;;5021765;28;20519;-73
2022/08/28 07:18:20;;;;;;;10.47;3.23;;;28.50;76.00;;;;;;5019717;28;20534;-73
2022/08/28 07:20:57;;;;;;;10.10;3.37;;;28.70;75.10;;;;;;5011139;28;20546;-71
2022/08/28 07:23:24;;;;;;;7.90;2.90;;;28.90;75.00;;;;;;4997223;28;20554;-72
2022/08/28 07:25:51;;;;;;;8.50;3.30;;;29.20;74.20;;;;;;4999297;28;20528;-74
2022/08/28 07:28:18;;;;;;;7.67;4.60;;;29.40;72.90;;;;;;4998932;28;20445;-73
2022/08/28 07:30:45;;;;;;;6.63;3.50;;;29.40;73.00;;;;;;5014626;28;20506;-73
2022/08/28 07:33:13;;;;;;;9.07;3.13;;;29.40;72.30;;;;;;5019611;28;20467;-72
2022/08/28 07:35:43;;;;;;;9.47;3.43;;;29.60;72.20;;;;;;5013257;28;20448;-74
2022/08/28 07:38:12;;;;;;;14.13;3.77;;;30.10;71.40;;;;;;5013191;28;20448;-72
2022/08/28 07:40:38;;;;;;;12.70;4.13;;;30.40;70.10;;;;;;5020030;28;20494;-72
2022/08/28 07:45:58;;;;;;;10.23;3.23;;;30.60;69.70;;;;;;5018630;28;20423;-72
2022/08/28 07:48:25;;;;;;;11.00;4.20;;;31.10;68.80;;;;;;5012827;28;20452;-71
2022/08/28 07:50:52;;;;;;;10.93;3.60;;;31.40;67.80;;;;;;5013651;28;20467;-74
2022/08/28 07:53:20;;;;;;;6.27;3.60;;;31.40;67.10;;;;;;5013849;28;20559;-73
2022/08/28 07:55:49;;;;;;;10.87;3.63;;;31.20;67.10;;;;;;5011287;28;20531;-73
2022/08/28 07:58:16;;;;;;;9.07;3.30;;;31.30;67.30;;;;;;5018163;28;20808;-73
2022/08/28 08:00:43;;;;;;;8.00;3.37;;;31.20;67.20;;;;;;5011458;28;20843;-73
2022/08/28 08:03:10;;;;;;;7.80;3.33;;;31.10;66.50;;;;;;5008172;28;20483;-73
2022/08/28 08:05:37;;;;;;;10.17;4.17;;;31.00;67.30;;;;;;5012559;28;21058;-72
2022/08/28 08:08:04;;;;;;;8.00;3.00;;;31.40;66.40;;;;;;5012167;28;20462;-73
2022/08/28 08:10:32;;;;;;;8.90;3.00;;;31.80;65.60;;;;;;5006348;28;20918;-74
2022/08/28 08:12:59;;;;;;;13.20;4.73;;;31.40;63.60;;;;;;5000101;28;20537;-74
2022/08/28 08:15:26;;;;;;;9.77;3.87;;;31.20;64.20;;;;;;5006789;28;20535;-73
2022/08/28 08:17:54;;;;;;;10.93;3.40;;;31.40;64.50;;;;;;5010304;28;20514;-71
2022/08/28 08:20:21;;;;;;;8.60;3.70;;;31.50;64.00;;;;;;5007339;28;20477;-73
2022/08/28 08:22:49;;;;;;;7.63;3.10;;;31.60;62.90;;;;;;5009675;28;20456;-74
2022/08/28 08:25:16;;;;;;;7.70;2.90;;;31.70;62.70;;;;;;5009325;28;20509;-73
2022/08/28 08:27:46;;;;;;;8.73;2.80;;;31.70;62.40;;;;;;5014719;28;20885;-73
2022/08/28 08:30:15;;;;;;;9.07;3.40;;;31.20;61.20;;;;;;5006516;28;20524;-73
2022/08/28 08:32:43;;;;;;;6.97;4.67;;;29.90;62.30;;;;;;5003987;28;20543;-75
2022/08/28 08:35:11;;;;;;;9.33;3.10;;;28.90;64.90;;;;;;5010405;28;20938;-75
2022/08/28 08:37:39;;;;;;;12.43;3.30;;;28.30;67.40;;;;;;5007223;28;20472;-74
2022/08/28 08:40:07;;;;;;;6.13;2.47;;;28.90;67.70;;;;;;5004391;28;20444;-73
2022/08/28 08:42:37;;;;;;;5.03;2.47;;;29.70;65.80;;;;;;5008808;28;20429;-74
2022/08/28 08:45:13;;;;;;;7.47;2.90;;;29.80;65.50;;;;;;5008936;28;20993;-73
2022/08/28 08:47:47;;;;;;;8.17;3.50;;;30.40;64.80;;;;;;5011773;28;20509;-73
2022/08/28 08:50:19;;;;;;;7.43;2.73;;;30.40;64.10;;;;;;5008624;28;20809;-72
2022/08/28 08:53:01;;;;;;;6.57;2.63;;;29.60;65.60;;;;;;5008919;28;20554;-74
2022/08/28 08:55:30;;;;;;;8.27;2.47;;;29.60;65.90;;;;;;5008762;28;20448;-75
2022/08/28 08:58:05;;;;;;;7.60;3.37;;;30.20;64.90;;;;;;5007358;28;20455;-74
2022/08/28 09:00:39;;;;;;;6.77;3.13;;;29.40;65.20;;;;;;5014325;28;20503;-75
2022/08/28 09:03:09;;;;;;;4.50;2.23;;;28.90;66.30;;;;;;5018847;28;20467;-74
2022/08/28 09:05:52;;;;;;;10.67;3.50;;;27.80;67.30;;;;;;5016342;28;20508;-73
2022/08/28 09:08:27;;;;;;;8.70;3.97;;;27.70;69.30;;;;;;5016724;28;20448;-75
2022/08/28 09:11:01;;;;;;;5.67;3.00;;;28.70;67.70;;;;;;5016601;28;20451;-77
2022/08/28 09:13:38;;;;;;;6.00;2.73;;;29.70;64.60;;;;;;5012497;28;20510;-76
2022/08/28 09:16:17;;;;;;;6.77;2.23;;;30.60;61.80;;;;;;5000601;28;20441;-77
2022/08/28 09:18:44;;;;;;;5.23;2.57;;;30.60;59.90;;;;;;5011617;28;20472;-76
2022/08/28 09:21:11;;;;;;;9.73;3.13;;;29.60;60.20;;;;;;5011315;28;20534;-76
2022/08/28 09:23:38;;;;;;;5.30;2.43;;;29.80;60.60;;;;;;5016826;28;20554;-75
2022/08/28 09:26:10;;;;;;;10.20;2.77;;;30.60;60.20;;;;;;5011075;28;20515;-78
2022/08/28 09:28:40;;;;;;;4.10;2.27;;;30.30;59.00;;;;;;5011779;28;20547;-76
2022/08/28 09:31:12;;;;;;;10.73;2.40;;;29.70;59.60;;;;;;5024020;28;20459;-78
2022/08/28 09:33:43;;;;;;;5.50;2.33;;;29.80;61.00;;;;;;5033872;28;20511;-78
2022/08/28 09:36:31;;;;;;;6.73;2.20;;;29.80;59.30;;;;;;5006043;28;20460;-82
2022/08/28 09:39:13;;;;;;;5.83;3.27;;;30.00;59.70;;;;;;5016373;28;20446;-77
2022/08/28 09:44:32;;;;;;;7.80;3.37;;;28.30;64.50;;;;;;5027179;28;20487;-77
2022/08/28 09:47:01;;;;;;;8.23;2.90;;;27.30;66.20;;;;;;5033011;28;20440;-76
2022/08/28 09:49:30;;;;;;;9.63;4.00;;;26.50;67.40;;;;;;5023495;28;20440;-77
2022/08/28 09:52:00;;;;;;;7.20;2.43;;;26.00;68.90;;;;;;5015249;28;20448;-77
2022/08/28 09:54:32;;;;;;;8.13;2.80;;;25.40;68.90;;;;;;5013302;28;20849;-78
2022/08/28 09:57:00;;;;;;;6.57;2.73;;;25.10;69.10;;;;;;5004511;28;20466;-78
2022/08/28 09:59:29;;;;;;;4.27;2.10;;;25.80;68.20;;;;;;5014703;28;20526;-82
2022/08/28 10:02:22;;;;;;;7.03;2.47;;;26.70;66.10;;;;;;5019316;28;20925;-80
2022/08/28 10:05:00;;;;;;;5.47;3.27;;;27.40;63.70;;;;;;5014612;28;20463;-79
2022/08/28 10:07:38;;;;;;;5.57;2.57;;;28.20;62.30;;;;;;5014222;28;20479;-77
2022/08/28 10:10:21;;;;;;;7.87;2.70;;;28.30;61.90;;;;;;5009676;28;20570;-77
2022/08/28 10:13:00;;;;;;;6.10;2.70;;;27.60;62.90;;;;;;5007487;28;20825;-74
2022/08/28 10:15:32;;;;;;;4.90;2.33;;;26.80;64.30;;;;;;5025220;28;20523;-76
2022/08/28 10:18:22;;;;;;;8.07;3.10;;;26.00;66.30;;;;;;5007890;28;20440;-74
2022/08/28 10:20:56;;;;;;;9.40;3.60;;;25.50;68.20;;;;;;5005401;28;20501;-77
2022/08/28 10:23:31;;;;;;;6.47;2.80;;;25.70;68.80;;;;;;5009008;28;20909;-77
2022/08/28 10:26:08;;;;;;;11.97;4.00;;;27.00;67.70;;;;;;5007938;28;20859;-77
2022/08/28 10:28:48;;;;;;;5.90;3.20;;;27.30;66.80;;;;;;5012455;28;20502;-78
2022/08/28 10:31:22;;;;;;;12.83;3.10;;;26.90;68.90;;;;;;5009278;28;20531;-73
2022/08/28 10:34:05;;;;;;;7.57;3.00;;;26.20;70.90;;;;;;5012036;28;20466;-74
2022/08/28 10:36:35;;;;;;;12.73;3.50;;;25.80;72.30;;;;;;5008926;28;20456;-73
2022/08/28 10:39:13;;;;;;;8.67;3.70;;;25.50;72.20;;;;;;5007267;28;20470;-76
2022/08/28 10:41:45;;;;;;;6.10;3.43;;;25.10;72.60;;;;;;5005414;28;20495;-75
2022/08/28 10:44:20;;;;;;;9.07;3.30;;;25.10;72.90;;;;;;5012430;28;20826;-75
2022/08/28 10:46:52;;;;;;;6.30;2.50;;;25.10;73.50;;;;;;5010559;28;20439;-74
2022/08/28 10:49:26;;;;;;;7.70;3.57;;;25.40;71.30;;;;;;5013231;28;20506;-75
2022/08/28 10:51:57;;;;;;;5.63;2.30;;;25.90;70.30;;;;;;5006427;28;20928;-73
2022/08/28 10:54:33;;;;;;;5.00;2.23;;;26.10;67.60;;;;;;5012000;28;20456;-76
2022/08/28 10:57:07;;;;;;;5.10;2.77;;;26.40;67.70;;;;;;5003605;28;20475;-73
2022/08/28 10:59:34;;;;;;;7.50;3.13;;;26.60;67.00;;;;;;5011072;28;20443;-73
2022/08/28 11:02:07;;;;;;;6.80;2.77;;;27.00;66.50;;;;;;5018067;28;20570;-71
2022/08/28 11:04:36;;;;;;;13.30;3.80;;;26.70;65.60;;;;;;5019108;28;20473;-72
2022/08/28 11:07:06;;;;;;;9.53;3.07;;;26.20;67.80;;;;;;5008145;28;20490;-73
2022/08/28 11:09:36;;;;;;;8.00;3.30;;;25.60;70.20;;;;;;5012477;28;20455;-74
2022/08/28 11:12:08;;;;;;;5.20;3.27;;;25.30;71.40;;;;;;5009539;28;20451;-76
2022/08/28 11:14:37;;;;;;;5.23;3.57;;;25.00;73.00;;;;;;5007999;28;20474;-75
2022/08/28 11:17:06;;;;;;;7.37;3.70;;;24.80;73.10;;;;;;5003788;28;20448;-73
2022/08/28 11:20:06;;;;;;;8.93;3.20;;;24.70;73.70;;;;;;5013187;28;20486;-74
2022/08/28 11:22:40;;;;;;;6.50;3.37;;;24.80;73.50;;;;;;5008148;28;20492;-76
2022/08/28 11:25:21;;;;;;;8.80;3.37;;;25.10;72.40;;;;;;5016052;28;20492;-76
2022/08/28 11:28:16;;;;;;;8.60;2.70;;;25.40;70.70;;;;;;5038520;28;20447;-75
2022/08/28 11:30:44;;;;;;;5.30;3.37;;;25.40;70.50;;;;;;5008511;28;20452;-76
2022/08/28 11:33:37;;;;;;;6.60;3.00;;;25.90;68.90;;;;;;5015700;28;20470;-76
2022/08/28 11:36:08;;;;;;;7.33;4.17;;;26.40;68.20;;;;;;5008890;28;20482;-77
2022/08/28 11:39:12;;;;;;;6.60;3.60;;;26.40;67.90;;;;;;5008099;28;20865;-74
2022/08/28 11:42:28;;;;;;;9.60;3.30;;;26.00;69.70;;;;;;5006798;28;20483;-75
2022/08/28 11:44:56;;;;;;;7.17;3.67;;;25.60;71.80;;;;;;5007008;28;20558;-75
2022/08/28 11:47:55;;;;;;;8.27;3.30;;;25.10;71.80;;;;;;5009986;28;20444;-76
2022/08/28 11:50:53;;;;;;;4.40;3.10;;;24.60;73.10;;;;;;5003833;28;21321;-75
2022/08/28 11:53:50;;;;;;;8.63;4.00;;;24.60;72.90;;;;;;5007996;28;20966;-71
2022/08/28 11:56:48;;;;;;;8.07;3.33;;;24.90;71.80;;;;;;5010236;28;20939;-73
2022/08/28 11:59:49;;;;;;;9.77;3.33;;;24.80;72.20;;;;;;5013779;28;20457;-74
2022/08/28 12:02:52;;;;;;;11.20;4.90;;;24.80;73.00;;;;;;5028184;28;20577;-74
2022/08/28 12:05:48;;;;;;;7.77;3.83;;;24.70;74.20;;;;;;5012164;28;20989;-73
2022/08/28 12:08:50;;;;;;;6.67;3.50;;;24.60;75.30;;;;;;5007891;28;20803;-75
2022/08/28 12:11:48;;;;;;;6.50;3.43;;;24.50;75.60;;;;;;5002781;28;20490;-74
2022/08/28 12:14:59;;;;;;;10.70;3.60;;;24.40;75.30;;;;;;5014755;28;20459;-73
2022/08/28 12:17:29;;;;;;;14.47;7.67;;;24.50;75.30;;;;;;5013992;28;20783;-73
2022/08/28 12:20:07;;;;;;;8.80;4.27;;;24.50;74.20;;;;;;5016350;28;20452;-73
2022/08/28 12:22:44;;;;;;;8.70;3.30;;;24.30;73.90;;;;;;5012207;28;20483;-72
2022/08/28 12:25:22;;;;;;;8.97;3.93;;;24.40;74.60;;;;;;5015358;28;20504;-76
2022/08/28 12:27:49;;;;;;;10.07;4.07;;;24.40;74.70;;;;;;5028613;28;20443;-74
2022/08/28 12:30:28;;;;;;;4.97;3.20;;;24.50;74.80;;;;;;5012781;28;20462;-75
2022/08/28 12:33:01;;;;;;;6.50;3.50;;;24.50;72.90;;;;;;5015603;28;20476;-73
2022/08/28 12:35:30;;;;;;;7.70;3.77;;;24.50;73.50;;;;;;5014185;28;20880;-78
2022/08/28 12:38:03;;;;;;;4.47;3.60;;;24.60;74.30;;;;;;5017255;28;20589;-78
2022/08/28 12:40:49;;;;;;;8.10;3.40;;;24.70;73.50;;;;;;5012485;28;20930;-78
2022/08/28 12:43:26;;;;;;;8.80;4.87;;;24.60;74.50;;;;;;5015188;28;20529;-79
2022/08/28 12:45:56;;;;;;;9.83;4.10;;;24.60;74.20;;;;;;5022798;28;20443;-77
2022/08/28 12:48:25;;;;;;;6.60;4.40;;;24.60;74.50;;;;;;5013033;28;20532;-77
2022/08/28 12:51:07;;;;;;;8.57;4.10;;;24.50;74.60;;;;;;5018220;28;20478;-79
2022/08/28 12:53:41;;;;;;;8.30;4.60;;;24.40;74.70;;;;;;5026082;28;20475;-76
2022/08/28 12:56:10;;;;;;;7.17;4.20;;;24.50;74.80;;;;;;5027663;28;20471;-75
2022/08/28 12:58:40;;;;;;;11.53;4.73;;;24.50;74.70;;;;;;5022457;28;20447;-75
2022/08/28 13:01:12;;;;;;;7.03;3.93;;;24.30;73.70;;;;;;5024671;28;20512;-74
2022/08/28 13:03:44;;;;;;;8.77;4.40;;;24.30;74.40;;;;;;5014233;28;20526;-75
2022/08/28 13:06:13;;;;;;;11.30;4.77;;;24.40;75.30;;;;;;5014274;28;20456;-76
2022/08/28 13:08:41;;;;;;;8.63;5.17;;;24.40;75.50;;;;;;5015754;28;20486;-76
2022/08/28 13:11:18;;;;;;;8.97;4.70;;;24.30;75.20;;;;;;5015572;28;20867;-75
2022/08/28 13:13:48;;;;;;;8.37;4.60;;;24.20;75.70;;;;;;5015439;28;20895;-76